createdAt,value
2018-06-01T00:01:15.858Z,99.80
2018-06-01T00:03:45.782Z,99.70
2018-06-01T00:06:16.467Z,99.70
2018-06-01T00:08:46.341Z,99.60
2018-06-01T00:11:16.355Z,99.70
2018-06-01T00:13:45.877Z,99.70
2018-06-01T00:16:17.470Z,99.60
2018-06-01T00:18:47.192Z,99.60
2018-06-01T00:21:16.990Z,99.70
2018-06-01T00:23:47.310Z,99.90
2018-06-01T00:26:18.855Z,99.90
2018-06-01T00:28:48.611Z,99.90
2018-06-01T00:31:18.268Z,99.90
2018-06-01T00:33:48.614Z,99.90
2018-06-01T00:36:18.334Z,99.90
2018-06-01T00:38:48.809Z,99.70
2018-06-01T00:41:18.576Z,99.70
2018-06-01T00:43:48.798Z,97.50
2018-06-01T00:46:18.907Z,97.00
2018-06-01T00:48:48.867Z,96.40
2018-06-01T00:51:18.601Z,96.10
2018-06-01T00:53:48.901Z,95.70
2018-06-01T00:56:18.667Z,96.00
2018-06-01T00:58:48.417Z,95.80
2018-06-01T01:01:18.084Z,96.30
2018-06-01T01:03:47.806Z,96.00
2018-06-01T01:06:18.112Z,95.90
2018-06-01T01:08:48.819Z,94.80
2018-06-01T01:11:19.138Z,94.80
2018-06-01T01:13:48.649Z,95.90
2018-06-01T01:16:18.314Z,94.90
2018-06-01T01:18:48.322Z,95.00
2018-06-01T01:21:18.734Z,95.20
2018-06-01T01:23:48.295Z,95.20
2018-06-01T01:26:20.218Z,95.20
2018-06-01T01:28:50.067Z,95.20
2018-06-01T01:31:19.841Z,95.10
2018-06-01T01:33:49.931Z,94.90
2018-06-01T01:36:19.710Z,94.90
2018-06-01T01:38:49.496Z,95.10
2018-06-01T01:41:19.642Z,95.40
2018-06-01T01:43:49.369Z,95.60
2018-06-01T01:46:19.184Z,95.60
2018-06-01T01:48:48.759Z,95.90
2018-06-01T01:51:18.441Z,95.40
2018-06-01T01:53:48.211Z,95.60
2018-06-01T01:56:17.954Z,96.10
2018-06-01T01:58:47.576Z,96.20
2018-06-01T02:01:17.221Z,96.80
2018-06-01T02:03:47.706Z,97.80
2018-06-01T02:06:17.561Z,97.80
2018-06-01T02:08:47.229Z,98.00
2018-06-01T02:11:16.930Z,98.40
2018-06-01T02:13:46.461Z,97.00
2018-06-01T02:16:16.116Z,96.70
2018-06-01T02:18:45.716Z,96.20
2018-06-01T02:21:15.347Z,96.10
2018-06-01T02:23:45.037Z,95.60
2018-06-01T02:26:15.301Z,95.30
2018-06-01T02:28:45.017Z,95.40
2018-06-01T02:31:14.636Z,96.00
2018-06-01T02:33:44.499Z,96.30
2018-06-01T02:36:14.063Z,96.00
2018-06-01T02:38:43.851Z,95.80
2018-06-01T02:41:14.577Z,96.00
2018-06-01T02:43:44.255Z,95.90
2018-06-01T02:46:13.890Z,96.30
2018-06-01T02:48:43.644Z,96.50
2018-06-01T02:51:14.061Z,96.30
2018-06-01T02:53:43.619Z,96.60
2018-06-01T02:56:14.119Z,96.70
2018-06-01T02:58:44.198Z,96.70
2018-06-01T03:01:13.948Z,96.90
2018-06-01T03:03:43.543Z,97.30
2018-06-01T03:06:14.321Z,98.10
2018-06-01T03:08:43.972Z,98.10
2018-06-01T03:11:14.725Z,97.50
2018-06-01T03:13:44.508Z,98.60
2018-06-01T03:16:14.793Z,98.80
2018-06-01T03:18:45.270Z,99.20
2018-06-01T03:21:15.051Z,99.20
2018-06-01T03:23:44.931Z,99.10
2018-06-01T03:26:14.587Z,98.90
2018-06-01T03:28:44.622Z,99.10
2018-06-01T03:31:15.077Z,98.90
2018-06-01T03:33:44.699Z,99.20
2018-06-01T03:36:14.423Z,98.70
2018-06-01T03:38:44.120Z,99.00
2018-06-01T03:41:13.814Z,99.10
2018-06-01T03:43:43.386Z,99.40
2018-06-01T03:46:13.035Z,99.80
2018-06-01T03:48:42.654Z,99.70
2018-06-01T03:51:12.449Z,99.70
2018-06-01T03:53:42.214Z,99.60
2018-06-01T03:56:11.898Z,99.60
2018-06-01T03:58:42.306Z,99.90
2018-06-01T04:01:12.032Z,99.90
2018-06-01T04:03:41.676Z,99.90
2018-06-01T04:06:11.211Z,99.90
2018-06-01T04:08:41.612Z,99.90
2018-06-01T04:11:11.337Z,99.90
2018-06-01T04:13:41.107Z,99.90
2018-06-01T04:16:10.905Z,99.70
2018-06-01T04:18:40.671Z,99.40
2018-06-01T04:21:10.416Z,99.10
2018-06-01T04:23:40.500Z,98.70
2018-06-01T04:26:10.143Z,98.60
2018-06-01T04:28:39.985Z,98.10
2018-06-01T04:31:09.662Z,96.60
2018-06-01T04:33:39.665Z,95.90
2018-06-01T04:36:09.751Z,95.30
2018-06-01T04:38:39.599Z,95.40
2018-06-01T04:41:09.326Z,95.10
2018-06-01T04:43:40.403Z,95.00
2018-06-01T04:46:10.435Z,94.60
2018-06-01T04:48:40.610Z,95.00
2018-06-01T04:51:10.336Z,94.80
2018-06-01T04:53:39.898Z,94.80
2018-06-01T04:56:09.941Z,95.50
2018-06-01T04:58:40.530Z,95.00
2018-06-01T05:01:10.097Z,94.90
2018-06-01T05:03:40.000Z,94.60
2018-06-01T05:06:09.812Z,94.20
2018-06-01T05:08:39.940Z,94.40
2018-06-01T05:11:09.657Z,94.30
2018-06-01T05:13:39.591Z,94.30
2018-06-01T05:16:09.468Z,93.80
2018-06-01T05:18:40.892Z,93.60
2018-06-01T05:21:10.780Z,93.60
2018-06-01T05:23:40.587Z,94.20
2018-06-01T05:26:10.293Z,93.30
2018-06-01T05:28:40.929Z,93.80
2018-06-01T05:31:10.594Z,93.30
2018-06-01T05:33:40.253Z,92.40
2018-06-01T05:36:10.228Z,92.70
2018-06-01T05:38:39.956Z,92.20
2018-06-01T05:41:09.813Z,91.90
2018-06-01T05:43:39.595Z,91.60
2018-06-01T05:46:09.300Z,91.90
2018-06-01T05:48:40.554Z,92.20
2018-06-01T05:51:10.253Z,92.00
2018-06-01T05:53:39.839Z,92.40
2018-06-01T05:56:09.408Z,92.60
2018-06-01T05:58:39.172Z,92.50
2018-06-01T06:01:08.938Z,92.60
2018-06-01T06:03:38.720Z,92.70
2018-06-01T06:06:09.599Z,92.50
2018-06-01T06:08:39.301Z,92.50
2018-06-01T06:11:09.245Z,92.70
2018-06-01T06:13:39.868Z,92.30
2018-06-01T06:16:09.555Z,92.30
2018-06-01T06:18:39.233Z,91.60
2018-06-01T06:21:09.176Z,91.30
2018-06-01T06:23:39.696Z,90.90
2018-06-01T06:26:09.509Z,90.90
2018-06-01T06:28:39.512Z,91.30
2018-06-01T06:31:09.305Z,89.50
2018-06-01T06:33:39.773Z,86.30
2018-06-01T06:36:09.835Z,86.30
2018-06-01T06:38:39.268Z,87.50
2018-06-01T06:41:08.935Z,86.80
2018-06-01T06:43:38.612Z,89.00
2018-06-01T06:46:08.316Z,89.20
2018-06-01T06:48:37.964Z,89.20
2018-06-01T06:51:08.333Z,87.10
2018-06-01T06:53:38.081Z,88.60
2018-06-01T06:56:07.533Z,86.50
2018-06-01T06:58:37.527Z,88.60
2018-06-01T07:01:06.960Z,86.40
2018-06-01T07:03:36.675Z,85.60
2018-06-01T07:06:06.880Z,85.40
2018-06-01T07:08:37.619Z,88.00
2018-06-01T07:11:07.152Z,88.10
2018-06-01T07:13:36.947Z,85.30
2018-06-01T07:16:06.653Z,82.30
2018-06-01T07:18:36.323Z,85.00
2018-06-01T07:21:05.861Z,87.80
2018-06-01T07:23:35.594Z,87.50
2018-06-01T07:26:04.969Z,86.90
2018-06-01T07:28:35.207Z,88.90
2018-06-01T07:31:04.846Z,90.10
2018-06-01T07:33:34.392Z,89.10
2018-06-01T07:36:03.979Z,87.30
2018-06-01T07:38:35.706Z,86.90
2018-06-01T07:41:05.137Z,86.90
2018-06-01T07:43:35.123Z,86.10
2018-06-01T07:46:04.710Z,88.10
2018-06-01T07:48:34.759Z,88.00
2018-06-01T07:51:04.387Z,86.40
2018-06-01T07:53:34.030Z,85.90
2018-06-01T07:56:03.938Z,86.00
2018-06-01T07:58:33.673Z,85.50
2018-06-01T08:01:04.602Z,87.30
2018-06-01T08:03:35.140Z,85.00
2018-06-01T08:06:04.671Z,85.10
2018-06-01T08:08:35.246Z,87.60
2018-06-01T08:11:04.490Z,87.60
2018-06-01T08:13:34.224Z,88.90
2018-06-01T08:16:03.519Z,87.40
2018-06-01T08:18:33.655Z,88.90
2018-06-01T08:21:03.311Z,86.40
2018-06-01T08:23:33.094Z,88.20
2018-06-01T08:26:03.310Z,86.30
2018-06-01T08:28:33.215Z,86.30
2018-06-01T08:31:02.770Z,84.70
2018-06-01T08:33:32.548Z,85.30
2018-06-01T08:36:02.018Z,82.70
2018-06-01T08:38:31.663Z,80.70
2018-06-01T08:41:01.206Z,79.80
2018-06-01T08:43:31.647Z,82.70
2018-06-01T08:46:01.463Z,82.80
2018-06-01T08:48:31.574Z,81.20
2018-06-01T08:51:01.829Z,77.70
2018-06-01T08:53:32.331Z,75.80
2018-06-01T08:56:03.347Z,78.30
2018-06-01T08:58:33.793Z,78.90
2018-06-01T09:01:03.261Z,78.90
2018-06-01T09:03:32.807Z,77.20
2018-06-01T09:06:02.498Z,81.60
2018-06-01T09:08:32.310Z,81.80
2018-06-01T09:11:02.028Z,81.20
2018-06-01T09:13:31.431Z,81.10
2018-06-01T09:16:00.860Z,81.30
2018-06-01T09:18:30.201Z,78.90
2018-06-01T09:20:59.734Z,76.30
2018-06-01T09:23:29.042Z,79.50
2018-06-01T09:25:59.141Z,73.60
2018-06-01T09:28:28.975Z,73.60
2018-06-01T09:30:58.359Z,76.30
2018-06-01T09:33:27.848Z,78.10
2018-06-01T09:35:57.365Z,78.00
2018-06-01T09:38:26.731Z,78.70
2018-06-01T09:40:55.930Z,79.10
2018-06-01T09:43:26.185Z,77.30
2018-06-01T09:45:55.832Z,77.00
2018-06-01T09:48:25.189Z,76.00
2018-06-01T09:50:55.204Z,77.30
2018-06-01T09:53:26.320Z,75.50
2018-06-01T09:55:55.710Z,75.30
2018-06-01T09:58:25.052Z,69.20
2018-06-01T10:00:58.637Z,63.40
2018-06-01T10:03:28.136Z,59.70
2018-06-01T10:05:57.249Z,59.50
2018-06-01T10:08:26.348Z,63.60
2018-06-01T10:10:55.897Z,67.80
2018-06-01T10:13:25.235Z,67.90
2018-06-01T10:15:55.908Z,64.40
2018-06-01T10:18:25.279Z,64.30
2018-06-01T10:20:54.578Z,58.80
2018-06-01T10:23:23.939Z,57.10
2018-06-01T10:25:54.000Z,63.20
2018-06-01T10:28:23.604Z,63.30
2018-06-01T10:30:53.861Z,68.00
2018-06-01T10:33:23.210Z,67.90
2018-06-01T10:35:52.733Z,66.40
2018-06-01T10:38:22.802Z,65.40
2018-06-01T10:40:53.082Z,67.50
2018-06-01T10:43:23.069Z,67.30
2018-06-01T10:45:53.145Z,69.00
2018-06-01T10:48:23.437Z,68.40
2018-06-01T10:50:53.473Z,67.60
2018-06-01T10:53:23.008Z,67.50
2018-06-01T10:55:52.508Z,69.20
2018-06-01T10:58:21.699Z,66.00
2018-06-01T11:00:51.360Z,59.10
2018-06-01T11:03:20.844Z,61.80
2018-06-01T11:05:50.181Z,62.40
2018-06-01T11:08:19.614Z,64.70
2018-06-01T11:10:49.007Z,58.30
2018-06-01T11:13:18.531Z,57.50
2018-06-01T11:15:47.953Z,55.70
2018-06-01T11:18:20.407Z,54.10
2018-06-01T11:20:49.933Z,53.10
2018-06-01T11:23:19.160Z,51.10
2018-06-01T11:25:48.414Z,51.60
2018-06-01T11:28:17.785Z,58.30
2018-06-01T11:30:47.153Z,62.60
2018-06-01T11:33:17.621Z,55.80
2018-06-01T11:35:47.172Z,57.80
2018-06-01T11:38:16.530Z,56.10
2018-06-01T11:40:45.805Z,58.20
2018-06-01T11:43:15.124Z,57.20
2018-06-01T11:45:45.270Z,56.60
2018-06-01T11:48:14.656Z,56.60
2018-06-01T11:50:44.718Z,54.80
2018-06-01T11:53:14.088Z,54.70
2018-06-01T11:55:43.297Z,53.00
2018-06-01T11:58:13.436Z,55.90
2018-06-01T12:00:42.855Z,57.40
2018-06-01T12:03:12.781Z,59.60
2018-06-01T12:05:42.284Z,59.50
2018-06-01T12:08:12.556Z,58.00
2018-06-01T12:10:42.714Z,58.40
2018-06-01T12:13:13.125Z,58.40
2018-06-01T12:15:42.780Z,57.70
2018-06-01T12:18:12.083Z,56.40
2018-06-01T12:20:43.062Z,57.80
2018-06-01T12:23:12.402Z,57.80
2018-06-01T12:25:41.621Z,59.00
2018-06-01T12:28:11.514Z,58.00
2018-06-01T12:30:41.141Z,56.80
2018-06-01T12:33:10.786Z,57.20
2018-06-01T12:35:40.330Z,52.80
2018-06-01T12:38:09.869Z,56.60
2018-06-01T12:40:40.139Z,54.90
2018-06-01T12:43:10.822Z,54.80
2018-06-01T12:45:40.538Z,56.10
2018-06-01T12:48:09.881Z,57.40
2018-06-01T12:50:39.203Z,59.90
2018-06-01T12:53:08.615Z,57.70
2018-06-01T12:55:38.160Z,55.10
2018-06-01T12:58:07.714Z,59.20
2018-06-01T13:00:36.874Z,61.00
2018-06-01T13:03:06.358Z,59.20
2018-06-01T13:05:36.292Z,60.60
2018-06-01T13:08:05.206Z,61.60
2018-06-01T13:10:34.715Z,61.20
2018-06-01T13:13:05.874Z,60.60
2018-06-01T13:15:35.433Z,59.60
2018-06-01T13:18:04.826Z,57.10
2018-06-01T13:20:36.093Z,57.70
2018-06-01T13:23:05.634Z,59.30
2018-06-01T13:25:36.134Z,58.90
2018-06-01T13:28:06.435Z,59.20
2018-06-01T13:30:35.888Z,56.00
2018-06-01T13:33:05.317Z,57.20
2018-06-01T13:35:34.655Z,58.80
2018-06-01T13:38:04.091Z,56.70
2018-06-01T13:40:33.586Z,56.90
2018-06-01T13:43:03.659Z,54.10
2018-06-01T13:45:34.090Z,52.90
2018-06-01T13:48:03.469Z,54.40
2018-06-01T13:50:33.202Z,56.20
2018-06-01T13:53:02.762Z,56.70
2018-06-01T13:55:33.191Z,55.60
2018-06-01T13:58:04.096Z,52.40
2018-06-01T14:00:33.730Z,52.50
2018-06-01T14:03:03.086Z,53.60
2018-06-01T14:05:34.128Z,55.60
2018-06-01T14:08:03.208Z,55.50
2018-06-01T14:10:32.754Z,54.40
2018-06-01T14:13:02.132Z,52.20
2018-06-01T14:15:31.745Z,53.10
2018-06-01T14:18:01.433Z,52.40
2018-06-01T14:20:32.193Z,51.20
2018-06-01T14:23:01.361Z,51.20
2018-06-01T14:25:30.783Z,52.50
2018-06-01T14:28:00.095Z,52.40
2018-06-01T14:30:29.939Z,50.80
2018-06-01T14:32:59.568Z,50.30
2018-06-01T14:35:29.355Z,52.80
2018-06-01T14:41:00.753Z,52.60
2018-06-01T14:43:33.328Z,51.30
2018-06-01T14:46:03.459Z,51.20
2018-06-01T14:48:33.897Z,49.90
2018-06-01T14:51:03.232Z,49.20
2018-06-01T14:53:32.472Z,52.20
2018-06-01T14:56:01.882Z,51.90
2018-06-01T14:58:33.535Z,52.50
2018-06-01T15:01:03.194Z,53.20
2018-06-01T15:03:32.421Z,52.10
2018-06-01T15:06:01.743Z,53.00
2018-06-01T15:08:31.067Z,52.20
2018-06-01T15:11:01.229Z,51.70
2018-06-01T15:13:31.117Z,52.90
2018-06-01T15:16:00.901Z,53.40
2018-06-01T15:18:31.297Z,50.90
2018-06-01T15:21:00.721Z,51.20
2018-06-01T15:23:30.199Z,51.00
2018-06-01T15:25:59.837Z,51.40
2018-06-01T15:28:29.495Z,51.40
2018-06-01T15:31:00.942Z,53.50
2018-06-01T15:33:30.504Z,53.50
2018-06-01T15:36:05.004Z,52.90
2018-06-01T15:38:34.508Z,51.70
2018-06-01T15:41:05.490Z,50.60
2018-06-01T15:43:35.309Z,51.30
2018-06-01T15:46:04.784Z,52.20
2018-06-01T15:48:34.479Z,51.30
2018-06-01T15:51:04.397Z,52.00
2018-06-01T15:53:34.312Z,51.60
2018-06-01T15:56:03.432Z,53.20
2018-06-01T15:58:32.912Z,52.00
2018-06-01T16:01:02.363Z,51.30
2018-06-01T16:03:31.741Z,53.60
2018-06-01T16:06:01.316Z,53.00
2018-06-01T16:08:30.719Z,52.90
2018-06-01T16:11:00.362Z,52.40
2018-06-01T16:13:30.181Z,54.90
2018-06-01T16:16:00.858Z,54.30
2018-06-01T16:18:30.511Z,54.20
2018-06-01T16:20:59.982Z,51.60
2018-06-01T16:23:29.610Z,51.40
2018-06-01T16:25:59.018Z,51.20
2018-06-01T16:28:28.352Z,50.90
2018-06-01T16:30:57.903Z,52.70
2018-06-01T16:33:28.147Z,52.50
2018-06-01T16:35:58.623Z,52.50
2018-06-01T16:38:28.137Z,52.50
2018-06-01T16:40:58.390Z,52.20
2018-06-01T16:43:28.304Z,52.60
2018-06-01T16:45:58.653Z,52.10
2018-06-01T16:48:28.182Z,52.00
2018-06-01T16:50:57.647Z,53.10
2018-06-01T16:53:27.318Z,53.50
2018-06-01T16:55:56.570Z,53.80
2018-06-01T16:58:26.239Z,52.40
2018-06-01T17:00:57.429Z,52.80
2018-06-01T17:03:27.786Z,52.80
2018-06-01T17:05:57.014Z,53.10
2018-06-01T17:08:26.324Z,54.20
2018-06-01T17:10:55.971Z,53.10
2018-06-01T17:13:27.789Z,52.20
2018-06-01T17:15:57.371Z,52.20
2018-06-01T17:18:26.851Z,52.30
2018-06-01T17:20:56.543Z,52.00
2018-06-01T17:23:25.813Z,53.20
2018-06-01T17:25:55.345Z,53.00
2018-06-01T17:28:24.791Z,53.90
2018-06-01T17:30:53.991Z,54.70
2018-06-01T17:33:23.898Z,54.20
2018-06-01T17:35:53.440Z,55.00
2018-06-01T17:38:22.513Z,56.10
2018-06-01T17:40:51.489Z,54.10
2018-06-01T17:43:20.530Z,55.10
2018-06-01T17:45:49.755Z,56.10
2018-06-01T17:48:18.692Z,55.50
2018-06-01T17:50:48.457Z,56.50
2018-06-01T17:53:18.134Z,56.80
2018-06-01T17:55:47.135Z,56.80
2018-06-01T17:58:16.113Z,56.40
2018-06-01T18:00:45.244Z,56.90
2018-06-01T18:03:14.233Z,56.00
2018-06-01T18:05:44.288Z,56.90
2018-06-01T18:08:13.275Z,56.90
2018-06-01T18:10:42.262Z,57.70
2018-06-01T18:13:12.076Z,58.00
2018-06-01T18:15:41.118Z,57.90
2018-06-01T18:18:11.106Z,59.00
2018-06-01T18:20:40.335Z,59.10
2018-06-01T18:23:10.631Z,59.40
2018-06-01T18:25:40.045Z,59.20
2018-06-01T18:28:09.684Z,60.00
2018-06-01T18:30:38.875Z,61.20
2018-06-01T18:33:08.516Z,60.90
2018-06-01T18:35:38.325Z,59.30
2018-06-01T18:38:08.466Z,60.30
2018-06-01T18:40:37.873Z,60.40
2018-06-01T18:43:07.463Z,61.20
2018-06-01T18:45:37.017Z,63.50
2018-06-01T18:48:06.029Z,64.20
2018-06-01T18:50:35.937Z,63.30
2018-06-01T18:53:05.183Z,64.30
2018-06-01T18:55:34.692Z,65.30
2018-06-01T18:58:04.103Z,65.70
2018-06-01T19:00:34.419Z,67.20
2018-06-01T19:03:03.959Z,67.10
2018-06-01T19:05:33.496Z,66.60
2018-06-01T19:08:03.002Z,68.10
2018-06-01T19:10:32.913Z,68.70
2018-06-01T19:13:03.708Z,74.90
2018-06-01T19:15:34.760Z,75.60
2018-06-01T19:18:04.140Z,75.50
2018-06-01T19:20:33.739Z,79.50
2018-06-01T19:23:03.256Z,79.80
2018-06-01T19:25:33.148Z,82.30
2018-06-01T19:28:02.920Z,87.50
2018-06-01T19:30:32.611Z,88.30
2018-06-01T19:33:02.216Z,88.20
2018-06-01T19:36:02.587Z,90.10
2018-06-01T19:38:32.288Z,90.60
2018-06-01T19:41:02.298Z,90.80
2018-06-01T19:43:31.721Z,89.10
2018-06-01T19:46:02.110Z,90.40
2018-06-01T19:48:31.697Z,90.40
2018-06-01T19:51:01.329Z,91.00
2018-06-01T19:53:30.753Z,92.60
2018-06-01T19:56:00.149Z,93.00
2018-06-01T19:58:30.155Z,93.10
2018-06-01T20:01:00.303Z,92.90
2018-06-01T20:03:30.030Z,92.50
2018-06-01T20:06:00.773Z,91.80
2018-06-01T20:08:30.267Z,91.80
2018-06-01T20:11:00.488Z,91.70
2018-06-01T20:13:29.963Z,91.70
2018-06-01T20:15:59.506Z,85.90
2018-06-01T20:18:30.136Z,83.40
2018-06-01T20:21:00.759Z,82.80
2018-06-01T20:23:30.098Z,82.90
2018-06-01T20:25:59.694Z,82.70
2018-06-01T20:28:29.390Z,82.70
2018-06-01T20:30:59.061Z,83.60
2018-06-01T20:33:28.655Z,83.80
2018-06-01T20:35:59.075Z,84.00
2018-06-01T20:38:28.327Z,84.60
2018-06-01T20:40:57.928Z,85.50
2018-06-01T20:43:27.825Z,86.50
2018-06-01T20:45:57.247Z,87.80
2018-06-01T20:48:26.924Z,89.20
2018-06-01T20:50:56.366Z,91.40
2018-06-01T20:53:25.870Z,92.30
2018-06-01T20:55:55.373Z,92.60
2018-06-01T20:58:24.783Z,92.60
2018-06-01T21:00:54.566Z,93.30
2018-06-01T21:03:23.987Z,93.80
2018-06-01T21:05:53.495Z,94.20
2018-06-01T21:08:23.078Z,94.70
2018-06-01T21:10:52.531Z,94.40
2018-06-01T21:13:22.201Z,94.40
2018-06-01T21:15:52.381Z,95.00
2018-06-01T21:18:22.762Z,95.60
2018-06-01T21:20:53.091Z,95.60
2018-06-01T21:23:22.853Z,95.60
2018-06-01T21:25:52.312Z,96.00
2018-06-01T21:28:21.739Z,96.30
2018-06-01T21:30:50.984Z,96.40
2018-06-01T21:33:20.451Z,96.60
2018-06-01T21:35:49.983Z,97.00
2018-06-01T21:38:19.627Z,97.50
2018-06-01T21:40:49.115Z,97.60
2018-06-01T21:43:18.352Z,98.00
2018-06-01T21:45:47.793Z,98.00
2018-06-01T21:48:17.113Z,97.90
2018-06-01T21:50:46.676Z,98.00
2018-06-01T21:53:16.429Z,98.20
2018-06-01T21:55:45.776Z,98.40
2018-06-01T21:58:15.218Z,98.60
2018-06-01T22:00:45.397Z,99.00
2018-06-01T22:03:14.731Z,98.70
2018-06-01T22:05:44.196Z,98.60
2018-06-01T22:08:13.492Z,98.80
2018-06-01T22:10:42.916Z,98.90
2018-06-01T22:13:12.284Z,99.00
2018-06-01T22:15:41.826Z,98.80
2018-06-01T22:18:11.303Z,98.90
2018-06-01T22:20:40.782Z,99.30
2018-06-01T22:23:10.364Z,99.10
2018-06-01T22:25:40.578Z,99.10
2018-06-01T22:28:10.127Z,99.20
2018-06-01T22:30:39.469Z,99.20
2018-06-01T22:33:09.202Z,99.20
2018-06-01T22:35:39.567Z,99.50
2018-06-01T22:38:09.258Z,99.50
2018-06-01T22:40:39.669Z,99.60
2018-06-01T22:43:09.005Z,99.50
2018-06-01T22:45:38.660Z,99.60
2018-06-01T22:48:08.067Z,99.60
2018-06-01T22:50:37.553Z,99.60
2018-06-01T22:53:06.951Z,99.70
2018-06-01T22:55:36.782Z,99.70
2018-06-01T22:58:07.024Z,99.70
2018-06-01T23:00:40.753Z,99.70
2018-06-01T23:03:10.856Z,99.90
2018-06-01T23:05:40.282Z,99.90
2018-06-01T23:08:09.797Z,99.90
2018-06-01T23:10:39.332Z,99.90
2018-06-01T23:13:08.874Z,99.90
2018-06-01T23:15:38.469Z,99.90
2018-06-01T23:18:08.722Z,99.90
2018-06-01T23:20:38.757Z,99.90
2018-06-01T23:23:08.196Z,99.90
2018-06-01T23:25:37.695Z,99.90
2018-06-01T23:28:07.056Z,99.90
2018-06-01T23:30:36.688Z,99.90
2018-06-01T23:33:06.306Z,99.90
2018-06-01T23:35:35.775Z,99.90
2018-06-01T23:38:05.179Z,99.90
2018-06-01T23:40:34.734Z,99.90
2018-06-01T23:43:03.897Z,99.90
2018-06-01T23:45:34.487Z,99.90
2018-06-01T23:48:03.553Z,99.90
2018-06-01T23:50:32.948Z,99.90
2018-06-01T23:53:02.882Z,99.90
2018-06-01T23:55:32.705Z,99.90
2018-06-01T23:58:02.204Z,99.90
